createdAt,value
2018-07-08T00:01:20.800Z,20.10
2018-07-08T00:03:49.051Z,20.00
2018-07-08T00:08:45.423Z,19.90
2018-07-08T00:11:13.620Z,19.80
2018-07-08T00:13:41.806Z,19.80
2018-07-08T00:16:10.057Z,19.80
2018-07-08T00:18:38.341Z,19.70
2018-07-08T00:21:06.618Z,19.70
2018-07-08T00:23:34.877Z,19.70
2018-07-08T00:30:59.052Z,19.50
2018-07-08T00:33:27.266Z,19.50
2018-07-08T00:35:55.483Z,19.40
2018-07-08T00:38:23.768Z,19.40
2018-07-08T00:40:52.035Z,19.40
2018-07-08T00:43:21.424Z,19.30
2018-07-08T00:45:49.684Z,19.20
2018-07-08T00:48:17.902Z,19.10
2018-07-08T00:50:46.108Z,19.00
2018-07-08T00:53:14.378Z,18.90
2018-07-08T00:55:42.642Z,18.90
2018-07-08T00:58:10.830Z,18.80
2018-07-08T01:00:39.036Z,18.80
2018-07-08T01:03:09.238Z,18.80
2018-07-08T01:05:37.518Z,18.80
2018-07-08T01:08:05.918Z,18.80
2018-07-08T01:10:34.162Z,18.70
2018-07-08T01:13:02.968Z,18.70
2018-07-08T01:17:59.272Z,18.60
2018-07-08T01:20:27.459Z,18.70
2018-07-08T01:22:55.730Z,18.70
2018-07-08T01:25:35.356Z,18.70
2018-07-08T01:28:03.543Z,18.70
2018-07-08T01:30:31.777Z,18.70
2018-07-08T01:32:59.984Z,18.70
2018-07-08T01:35:28.246Z,18.70
2018-07-08T01:37:56.520Z,18.70
2018-07-08T01:40:24.700Z,18.70
2018-07-08T01:45:21.045Z,18.60
2018-07-08T01:47:49.320Z,18.60
2018-07-08T01:50:17.549Z,18.60
2018-07-08T01:52:45.734Z,18.60
2018-07-08T01:55:14.175Z,18.50
2018-07-08T01:57:42.361Z,18.50
2018-07-08T02:00:10.549Z,18.50
2018-07-08T02:02:38.817Z,18.40
2018-07-08T02:05:07.057Z,18.40
2018-07-08T02:07:35.348Z,18.40
2018-07-08T02:10:03.612Z,18.40
2018-07-08T02:12:31.901Z,18.40
2018-07-08T02:15:00.167Z,18.40
2018-07-08T02:17:28.397Z,18.40
2018-07-08T02:19:56.701Z,18.40
2018-07-08T02:22:24.937Z,18.30
2018-07-08T02:24:53.215Z,18.30
2018-07-08T02:27:22.261Z,18.30
2018-07-08T02:29:50.497Z,18.30
2018-07-08T02:32:18.699Z,18.30
2018-07-08T02:34:46.969Z,18.30
2018-07-08T02:37:15.249Z,18.30
2018-07-08T02:42:11.523Z,18.20
2018-07-08T02:44:39.887Z,18.20
2018-07-08T02:47:08.348Z,18.10
2018-07-08T02:49:36.547Z,18.10
2018-07-08T02:52:04.859Z,18.00
2018-07-08T02:57:01.320Z,18.00
2018-07-08T02:59:29.508Z,17.90
2018-07-08T03:01:57.794Z,17.90
2018-07-08T03:04:26.062Z,17.80
2018-07-08T03:06:54.325Z,17.70
2018-07-08T03:09:22.606Z,17.70
2018-07-08T03:11:51.091Z,17.60
2018-07-08T03:14:19.362Z,17.60
2018-07-08T03:16:47.634Z,17.60
2018-07-08T03:19:16.205Z,17.60
2018-07-08T03:21:44.381Z,17.60
2018-07-08T03:24:12.769Z,17.50
2018-07-08T03:26:41.041Z,17.50
2018-07-08T03:29:09.236Z,17.50
2018-07-08T03:31:37.460Z,17.40
2018-07-08T03:34:05.705Z,17.40
2018-07-08T03:36:33.963Z,17.40
2018-07-08T03:39:02.221Z,17.30
2018-07-08T03:41:30.415Z,17.30
2018-07-08T03:43:58.695Z,17.30
2018-07-08T03:46:26.931Z,17.20
2018-07-08T03:48:55.213Z,17.20
2018-07-08T03:51:23.398Z,17.10
2018-07-08T03:53:51.583Z,17.10
2018-07-08T03:56:19.839Z,17.00
2018-07-08T03:58:48.028Z,16.90
2018-07-08T04:01:16.290Z,16.90
2018-07-08T04:03:44.543Z,16.90
2018-07-08T04:06:12.805Z,16.90
2018-07-08T04:08:41.147Z,16.90
2018-07-08T04:11:09.757Z,16.90
2018-07-08T04:13:37.973Z,17.00
2018-07-08T04:16:07.388Z,17.00
2018-07-08T04:18:35.697Z,17.10
2018-07-08T04:21:03.951Z,17.20
2018-07-08T04:23:32.225Z,17.20
2018-07-08T04:26:00.456Z,17.30
2018-07-08T04:28:28.651Z,17.30
2018-07-08T04:30:56.909Z,17.30
2018-07-08T04:33:25.085Z,17.20
2018-07-08T04:35:53.293Z,17.30
2018-07-08T04:38:21.583Z,17.30
2018-07-08T04:40:49.814Z,17.30
2018-07-08T04:43:18.026Z,17.30
2018-07-08T04:45:46.223Z,17.40
2018-07-08T04:48:14.403Z,17.30
2018-07-08T04:50:42.673Z,17.40
2018-07-08T04:53:10.916Z,17.40
2018-07-08T04:58:07.154Z,17.50
2018-07-08T05:00:35.401Z,17.60
2018-07-08T05:03:03.707Z,17.70
2018-07-08T05:05:31.940Z,17.80
2018-07-08T05:08:00.228Z,17.90
2018-07-08T05:10:28.414Z,18.00
2018-07-08T05:12:56.684Z,18.00
2018-07-08T05:15:24.949Z,18.10
2018-07-08T05:17:53.572Z,18.10
2018-07-08T05:20:21.805Z,18.20
2018-07-08T05:22:50.020Z,18.30
2018-07-08T05:25:18.304Z,18.40
2018-07-08T05:27:46.492Z,18.50
2018-07-08T05:30:14.876Z,18.60
2018-07-08T05:32:43.156Z,18.70
2018-07-08T05:35:11.404Z,18.70
2018-07-08T05:37:39.632Z,18.80
2018-07-08T05:40:07.824Z,18.90
2018-07-08T05:42:36.064Z,19.00
2018-07-08T05:45:04.348Z,19.10
2018-07-08T05:47:32.602Z,19.20
2018-07-08T05:52:28.896Z,19.30
2018-07-08T05:54:57.158Z,19.40
2018-07-08T05:57:25.484Z,19.50
2018-07-08T05:59:53.696Z,19.50
2018-07-08T06:02:21.952Z,19.60
2018-07-08T06:04:50.196Z,19.70
2018-07-08T06:07:18.436Z,19.80
2018-07-08T06:12:14.768Z,20.00
2018-07-08T06:14:43.060Z,20.10
2018-07-08T06:17:11.340Z,20.20
2018-07-08T06:19:39.592Z,20.30
2018-07-08T06:22:07.808Z,20.40
2018-07-08T06:24:36.021Z,20.50
2018-07-08T06:27:04.336Z,20.60
2018-07-08T06:29:32.591Z,20.60
2018-07-08T06:32:00.908Z,20.70
2018-07-08T06:34:29.130Z,20.80
2018-07-08T06:39:25.510Z,21.10
2018-07-08T06:41:53.700Z,21.20
2018-07-08T06:44:21.952Z,21.20
2018-07-08T06:46:50.148Z,21.30
2018-07-08T06:49:18.406Z,21.50
2018-07-08T06:54:14.760Z,21.60
2018-07-08T06:56:42.995Z,21.60
2018-07-08T06:59:11.451Z,21.70
2018-07-08T07:01:39.714Z,21.80
2018-07-08T07:04:07.964Z,21.90
2018-07-08T07:06:36.144Z,22.00
2018-07-08T07:09:06.054Z,22.00
2018-07-08T07:11:34.317Z,22.10
2018-07-08T07:14:02.562Z,22.10
2018-07-08T07:16:30.842Z,22.10
2018-07-08T07:18:59.044Z,22.10
2018-07-08T07:21:27.301Z,22.20
2018-07-08T07:23:55.542Z,22.20
2018-07-08T07:26:24.905Z,22.30
2018-07-08T07:28:53.156Z,22.40
2018-07-08T07:31:21.398Z,22.50
2018-07-08T07:33:49.668Z,22.50
2018-07-08T07:36:17.943Z,22.60
2018-07-08T07:38:46.163Z,22.60
2018-07-08T07:41:14.414Z,22.70
2018-07-08T07:43:42.672Z,22.70
2018-07-08T07:46:10.869Z,22.80
2018-07-08T07:48:39.119Z,22.90
2018-07-08T07:51:07.306Z,22.90
2018-07-08T07:53:35.547Z,23.00
2018-07-08T07:56:03.763Z,23.10
2018-07-08T07:58:32.175Z,23.10
2018-07-08T08:01:00.401Z,23.00
2018-07-08T08:03:28.606Z,23.10
2018-07-08T08:05:56.841Z,23.10
2018-07-08T08:08:25.032Z,23.10
2018-07-08T08:13:21.339Z,23.20
2018-07-08T08:15:49.592Z,23.20
2018-07-08T08:18:17.833Z,23.20
2018-07-08T08:20:46.042Z,23.20
2018-07-08T08:23:14.282Z,23.20
2018-07-08T08:25:42.477Z,23.30
2018-07-08T08:28:10.652Z,23.30
2018-07-08T08:30:38.907Z,23.50
2018-07-08T08:33:07.119Z,23.60
2018-07-08T08:35:35.314Z,23.70
2018-07-08T08:38:03.590Z,23.80
2018-07-08T08:42:59.996Z,24.20
2018-07-08T08:45:29.567Z,24.30
2018-07-08T08:47:57.841Z,24.40
2018-07-08T08:50:26.146Z,24.50
2018-07-08T08:52:54.333Z,24.70
2018-07-08T08:55:22.532Z,24.80
2018-07-08T08:57:50.726Z,24.70
2018-07-08T09:00:19.642Z,24.70
2018-07-08T09:02:47.911Z,24.80
2018-07-08T09:05:16.103Z,24.80
2018-07-08T09:07:44.360Z,24.70
2018-07-08T09:10:12.615Z,24.80
2018-07-08T09:12:40.907Z,24.90
2018-07-08T09:15:09.166Z,25.00
2018-07-08T09:17:37.354Z,25.00
2018-07-08T09:20:05.780Z,25.10
2018-07-08T09:22:34.056Z,25.10
2018-07-08T09:25:02.488Z,25.20
2018-07-08T09:27:30.737Z,25.30
2018-07-08T09:29:59.049Z,25.40
2018-07-08T09:32:27.300Z,25.60
2018-07-08T09:34:55.497Z,25.70
2018-07-08T09:37:23.759Z,25.70
2018-07-08T09:39:51.955Z,25.60
2018-07-08T09:42:20.200Z,25.50
2018-07-08T09:44:48.465Z,25.50
2018-07-08T09:47:16.723Z,25.60
2018-07-08T09:49:44.911Z,25.70
2018-07-08T09:52:13.111Z,25.80
2018-07-08T09:54:41.365Z,25.90
2018-07-08T09:57:10.067Z,26.00
2018-07-08T09:59:38.271Z,26.20
2018-07-08T10:02:08.378Z,26.40
2018-07-08T10:07:05.240Z,26.80
2018-07-08T10:09:33.494Z,26.80
2018-07-08T10:12:01.702Z,26.80
2018-07-08T10:14:29.978Z,27.00
2018-07-08T10:16:58.353Z,27.40
2018-07-08T10:19:26.638Z,27.70
2018-07-08T10:21:54.774Z,27.90
2018-07-08T10:24:23.040Z,28.30
2018-07-08T10:28:18.265Z,28.80
2018-07-08T10:30:46.748Z,29.40
2018-07-08T10:33:15.016Z,29.90
2018-07-08T10:35:56.277Z,30.40
2018-07-08T10:38:24.552Z,31.00
2018-07-08T10:40:52.812Z,31.50
2018-07-08T10:43:21.048Z,32.20
2018-07-08T10:45:49.198Z,33.00
2018-07-08T10:48:17.436Z,33.70
2018-07-08T10:50:45.663Z,33.90
2018-07-08T10:53:13.922Z,33.80
2018-07-08T10:55:42.104Z,34.10
2018-07-08T10:58:10.982Z,34.40
2018-07-08T11:00:39.209Z,34.90
2018-07-08T11:03:07.475Z,35.50
2018-07-08T11:05:35.695Z,35.80
2018-07-08T11:10:31.880Z,35.60
2018-07-08T11:13:00.137Z,35.60
2018-07-08T11:15:28.644Z,35.90
2018-07-08T11:17:56.840Z,36.40
2018-07-08T11:20:25.097Z,36.80
2018-07-08T11:22:53.285Z,36.80
2018-07-08T11:25:21.558Z,36.60
2018-07-08T11:27:49.753Z,36.80
2018-07-08T11:30:17.958Z,36.70
2018-07-08T11:32:46.144Z,36.30
2018-07-08T11:35:14.429Z,36.20
2018-07-08T11:37:42.704Z,36.20
2018-07-08T11:40:10.910Z,35.90
2018-07-08T11:42:39.104Z,35.50
2018-07-08T11:45:07.342Z,35.30
2018-07-08T11:47:35.642Z,35.00
2018-07-08T11:52:31.864Z,35.50
2018-07-08T11:55:00.063Z,35.40
2018-07-08T11:57:28.314Z,34.90
2018-07-08T11:59:56.966Z,34.40
2018-07-08T12:02:25.173Z,34.70
2018-07-08T12:04:53.436Z,34.90
2018-07-08T12:07:21.686Z,34.90
2018-07-08T12:09:49.936Z,34.80
2018-07-08T12:12:18.170Z,35.20
2018-07-08T12:14:46.468Z,35.70
2018-07-08T12:17:14.776Z,36.00
2018-07-08T12:19:43.042Z,36.20
2018-07-08T12:22:11.324Z,36.30
2018-07-08T12:24:40.104Z,36.50
2018-07-08T12:27:08.386Z,36.70
2018-07-08T12:29:36.640Z,37.30
2018-07-08T12:32:05.139Z,37.30
2018-07-08T12:34:33.436Z,36.90
2018-07-08T12:37:01.749Z,36.30
2018-07-08T12:39:29.950Z,36.50
2018-07-08T12:44:26.402Z,36.60
2018-07-08T12:46:54.563Z,37.20
2018-07-08T12:49:22.784Z,37.80
2018-07-08T12:51:51.058Z,38.10
2018-07-08T12:54:19.255Z,37.80
2018-07-08T12:56:47.449Z,37.60
2018-07-08T12:59:15.658Z,37.70
2018-07-08T13:01:43.967Z,38.00
2018-07-08T13:04:12.292Z,38.30
2018-07-08T13:06:40.581Z,38.60
2018-07-08T13:09:08.756Z,39.20
2018-07-08T13:11:36.946Z,39.60
2018-07-08T13:14:05.188Z,39.90
2018-07-08T13:16:33.678Z,39.70
2018-07-08T13:19:01.961Z,39.90
2018-07-08T13:21:30.194Z,40.20
2018-07-08T13:23:58.456Z,40.40
2018-07-08T13:26:26.762Z,40.20
2018-07-08T13:28:54.928Z,40.00
2018-07-08T13:31:23.130Z,39.90
2018-07-08T13:33:51.406Z,39.90
2018-07-08T13:36:19.664Z,39.70
2018-07-08T13:38:48.132Z,39.60
2018-07-08T13:41:16.332Z,39.60
2018-07-08T13:43:44.740Z,39.60
2018-07-08T13:46:15.204Z,39.60
2018-07-08T13:48:43.460Z,39.50
2018-07-08T13:51:11.716Z,39.50
2018-07-08T13:53:39.936Z,39.70
2018-07-08T13:56:08.196Z,40.10
2018-07-08T13:58:36.408Z,40.10
2018-07-08T14:01:04.691Z,39.70
2018-07-08T14:03:33.141Z,39.00
2018-07-08T14:06:01.343Z,38.30
2018-07-08T14:08:29.615Z,37.90
2018-07-08T14:10:57.803Z,37.60
2018-07-08T14:13:26.081Z,37.50
2018-07-08T14:15:54.346Z,37.00
2018-07-08T14:18:22.601Z,36.70
2018-07-08T14:20:50.872Z,36.50
2018-07-08T14:23:19.065Z,36.50
2018-07-08T14:25:47.345Z,36.10
2018-07-08T14:28:16.210Z,35.60
2018-07-08T14:30:45.827Z,35.10
2018-07-08T14:33:14.120Z,34.50
2018-07-08T14:35:42.312Z,34.10
2018-07-08T14:38:10.524Z,33.70
2018-07-08T14:40:38.773Z,33.60
2018-07-08T14:43:06.941Z,33.50
2018-07-08T14:45:35.155Z,33.30
2018-07-08T14:48:03.377Z,33.10
2018-07-08T14:50:31.653Z,32.90
2018-07-08T14:52:59.871Z,32.80
2018-07-08T14:55:28.167Z,32.60
2018-07-08T14:57:56.435Z,32.50
2018-07-08T15:00:24.670Z,32.40
2018-07-08T15:02:52.948Z,32.30
2018-07-08T15:05:21.197Z,32.00
2018-07-08T15:07:49.459Z,31.60
2018-07-08T15:10:17.729Z,31.40
2018-07-08T15:12:46.289Z,31.30
2018-07-08T15:15:14.591Z,31.30
2018-07-08T15:17:42.861Z,31.30
2018-07-08T15:20:11.061Z,31.30
2018-07-08T15:22:39.314Z,31.40
2018-07-08T15:25:07.600Z,31.30
2018-07-08T15:27:35.923Z,31.30
2018-07-08T15:30:04.213Z,31.30
2018-07-08T15:32:32.613Z,31.30
2018-07-08T15:35:00.899Z,31.40
2018-07-08T15:39:57.201Z,31.50
2018-07-08T15:42:25.383Z,31.30
2018-07-08T15:44:53.644Z,31.10
2018-07-08T15:47:22.107Z,31.00
2018-07-08T15:49:50.255Z,30.90
2018-07-08T15:52:18.436Z,30.80
2018-07-08T15:54:47.015Z,30.80
2018-07-08T15:57:15.268Z,30.90
2018-07-08T15:59:43.716Z,30.90
2018-07-08T16:02:14.600Z,30.90
2018-07-08T16:04:42.814Z,31.00
2018-07-08T16:07:11.354Z,31.10
2018-07-08T16:09:39.528Z,31.00
2018-07-08T16:12:07.831Z,30.90
2018-07-08T16:14:36.048Z,30.70
2018-07-08T16:17:04.342Z,30.70
2018-07-08T16:19:32.623Z,30.80
2018-07-08T16:22:00.832Z,30.80
2018-07-08T16:24:29.114Z,30.90
2018-07-08T16:26:57.806Z,30.90
2018-07-08T16:29:26.078Z,30.70
2018-07-08T16:31:54.425Z,30.60
2018-07-08T16:34:22.654Z,30.40
2018-07-08T16:36:50.956Z,30.30
2018-07-08T16:39:19.224Z,30.30
2018-07-08T16:41:47.450Z,30.30
2018-07-08T16:46:43.626Z,30.20
2018-07-08T16:49:11.893Z,30.20
2018-07-08T16:51:40.154Z,30.20
2018-07-08T16:54:08.379Z,30.30
2018-07-08T16:56:36.614Z,30.20
2018-07-08T16:59:04.838Z,30.10
2018-07-08T17:01:33.052Z,30.10
2018-07-08T17:04:01.261Z,30.10
2018-07-08T17:06:29.546Z,30.00
2018-07-08T17:11:25.854Z,29.90
2018-07-08T17:13:54.080Z,29.80
2018-07-08T17:16:22.302Z,29.80
2018-07-08T17:18:50.850Z,29.60
2018-07-08T17:21:19.100Z,29.60
2018-07-08T17:23:47.405Z,29.50
2018-07-08T17:26:16.294Z,29.50
2018-07-08T17:28:44.552Z,29.50
2018-07-08T17:31:12.806Z,29.50
2018-07-08T17:33:41.052Z,29.50
2018-07-08T17:38:38.112Z,29.30
2018-07-08T17:41:06.679Z,29.20
2018-07-08T17:43:35.097Z,29.10
2018-07-08T17:46:03.563Z,29.10
2018-07-08T17:48:31.828Z,29.10
2018-07-08T17:51:00.225Z,29.00
2018-07-08T17:55:56.408Z,28.90
2018-07-08T18:00:52.609Z,28.90
2018-07-08T18:03:20.844Z,28.80
2018-07-08T18:08:17.058Z,28.70
2018-07-08T18:10:45.267Z,28.70
2018-07-08T18:13:13.494Z,28.70
2018-07-08T18:15:41.826Z,28.70
2018-07-08T18:18:10.036Z,28.70
2018-07-08T18:20:38.497Z,28.70
2018-07-08T18:23:06.763Z,28.70
2018-07-08T18:25:35.020Z,28.60
2018-07-08T18:28:03.270Z,28.50
2018-07-08T18:30:32.983Z,28.40
2018-07-08T18:33:01.252Z,28.30
2018-07-08T18:35:29.464Z,28.20
2018-07-08T18:37:57.747Z,28.10
2018-07-08T18:40:25.957Z,28.00
2018-07-08T18:42:54.182Z,27.90
2018-07-08T18:45:22.364Z,27.70
2018-07-08T18:47:50.673Z,27.60
2018-07-08T18:50:18.880Z,27.40
2018-07-08T18:52:47.150Z,27.30
2018-07-08T18:55:15.869Z,27.10
2018-07-08T18:57:44.139Z,27.10
2018-07-08T19:02:40.534Z,26.90
2018-07-08T19:05:08.738Z,26.80
2018-07-08T19:07:36.980Z,26.70
2018-07-08T19:10:05.266Z,26.60
2018-07-08T19:12:33.716Z,26.50
2018-07-08T19:15:01.990Z,26.40
2018-07-08T19:17:30.246Z,26.30
2018-07-08T19:19:58.552Z,26.20
2018-07-08T19:22:26.750Z,26.10
2018-07-08T19:24:55.812Z,26.00
2018-07-08T19:27:24.272Z,25.90
2018-07-08T19:29:52.478Z,25.80
2018-07-08T19:32:20.704Z,25.70
2018-07-08T19:34:48.998Z,25.60
2018-07-08T19:37:17.274Z,25.50
2018-07-08T19:39:45.494Z,25.40
2018-07-08T19:42:13.694Z,25.30
2018-07-08T19:47:10.143Z,25.10
2018-07-08T19:49:38.369Z,25.00
2018-07-08T19:52:06.618Z,24.90
2018-07-08T19:54:34.872Z,24.80
2018-07-08T19:57:03.185Z,24.80
2018-07-08T19:59:31.430Z,24.70
2018-07-08T20:01:59.793Z,24.60
2018-07-08T20:04:27.973Z,24.50
2018-07-08T20:06:56.497Z,24.40
2018-07-08T20:09:24.700Z,24.40
2018-07-08T20:14:20.995Z,24.30
2018-07-08T20:16:49.261Z,24.20
2018-07-08T20:19:17.605Z,24.10
2018-07-08T20:21:46.009Z,24.10
2018-07-08T20:24:14.343Z,24.00
2018-07-08T20:26:42.625Z,24.00
2018-07-08T20:29:10.879Z,24.00
2018-07-08T20:31:39.695Z,23.90
2018-07-08T20:34:07.981Z,23.80
2018-07-08T20:36:36.447Z,23.70
2018-07-08T20:39:05.700Z,23.60
2018-07-08T20:41:33.992Z,23.50
2018-07-08T20:44:02.217Z,23.40
2018-07-08T20:46:31.301Z,23.30
2018-07-08T20:48:59.661Z,23.20
2018-07-08T20:53:56.424Z,23.00
2018-07-08T20:56:24.810Z,22.90
2018-07-08T20:58:53.177Z,22.90
2018-07-08T21:01:21.817Z,22.80
2018-07-08T21:03:50.023Z,22.80
2018-07-08T21:06:18.227Z,22.80
2018-07-08T21:08:46.478Z,22.80
2018-07-08T21:11:14.725Z,22.70
2018-07-08T21:13:43.005Z,22.70
2018-07-08T21:16:11.623Z,22.70
2018-07-08T21:18:39.914Z,22.70
2018-07-08T21:21:08.197Z,22.70
2018-07-08T21:23:36.495Z,22.70
2018-07-08T21:26:04.799Z,22.70
2018-07-08T21:28:33.166Z,22.60
2018-07-08T21:31:01.449Z,22.60
2018-07-08T21:33:29.697Z,22.60
2018-07-08T21:35:57.911Z,22.60
2018-07-08T21:40:55.445Z,22.50
2018-07-08T21:43:24.317Z,22.50
2018-07-08T21:48:20.557Z,22.50
2018-07-08T21:50:48.821Z,22.40
2018-07-08T21:53:17.255Z,22.40
2018-07-08T21:55:45.468Z,22.40
2018-07-08T21:58:13.679Z,22.40
2018-07-08T22:00:56.202Z,22.30
2018-07-08T22:03:24.547Z,22.30
2018-07-08T22:05:52.763Z,22.30
2018-07-08T22:08:25.218Z,22.20
2018-07-08T22:10:53.413Z,22.20
2018-07-08T22:13:21.678Z,22.20
2018-07-08T22:15:49.948Z,22.10
2018-07-08T22:18:18.221Z,22.10
2018-07-08T22:20:46.471Z,22.00
2018-07-08T22:23:14.688Z,22.00
2018-07-08T22:25:42.969Z,22.00
2018-07-08T22:28:11.473Z,22.00
2018-07-08T22:30:39.753Z,22.00
2018-07-08T22:33:08.064Z,22.00
2018-07-08T22:35:36.245Z,21.90
2018-07-08T22:38:04.503Z,21.90
2018-07-08T22:40:32.773Z,21.80
2018-07-08T22:43:00.975Z,21.80
2018-07-08T22:45:29.285Z,21.80
2018-07-08T22:47:57.550Z,21.80
2018-07-08T22:50:25.809Z,21.70
2018-07-08T22:52:54.031Z,21.70
2018-07-08T22:55:22.287Z,21.70
2018-07-08T22:57:50.569Z,21.60
2018-07-08T23:00:30.177Z,21.60
2018-07-08T23:04:06.163Z,21.50
2018-07-08T23:09:02.655Z,21.40
2018-07-08T23:11:30.926Z,21.30
2018-07-08T23:13:59.505Z,21.30
2018-07-08T23:16:28.291Z,21.20
2018-07-08T23:18:56.563Z,21.20
2018-07-08T23:21:24.760Z,21.10
2018-07-08T23:23:53.044Z,21.10
2018-07-08T23:26:21.301Z,21.10
2018-07-08T23:28:49.584Z,21.10
2018-07-08T23:31:17.781Z,21.10
2018-07-08T23:33:46.057Z,21.10
2018-07-08T23:36:14.263Z,21.10
2018-07-08T23:38:42.525Z,21.10
2018-07-08T23:41:11.518Z,21.00
2018-07-08T23:43:39.819Z,21.00
2018-07-08T23:46:08.111Z,20.90
2018-07-08T23:48:36.493Z,20.90
2018-07-08T23:51:04.739Z,20.90
2018-07-08T23:56:01.081Z,20.80
2018-07-08T23:58:29.363Z,20.80
